sensor_id;sensor_type;location;lat;lon;timestamp;pressure;altitude;pressure_sealevel;temperature;humidity
49459;BME280;35354;51.296;16.924;2022-08-19T00:01:53;98907.31;;;24.59;79.34
49459;BME280;35354;51.296;16.924;2022-08-19T00:04:25;98902.53;;;24.54;79.25
49459;BME280;35354;51.296;16.924;2022-08-19T00:06:51;98892.22;;;24.51;78.82
49459;BME280;35354;51.296;16.924;2022-08-19T00:09:18;98892.22;;;24.51;79.18
49459;BME280;35354;51.296;16.924;2022-08-19T00:11:44;98902.53;;;24.54;78.70
49459;BME280;35354;51.296;16.924;2022-08-19T00:14:13;98884.44;;;24.50;78.85
49459;BME280;35354;51.296;16.924;2022-08-19T00:16:39;98874.25;;;24.53;78.68
49459;BME280;35354;51.296;16.924;2022-08-19T00:19:06;98877.56;;;24.55;78.81
49459;BME280;35354;51.296;16.924;2022-08-19T00:21:31;98885.53;;;24.55;78.18
49459;BME280;35354;51.296;16.924;2022-08-19T00:23:57;98871.41;;;24.55;78.23
49459;BME280;35354;51.296;16.924;2022-08-19T00:26:27;98863.13;;;24.50;77.78
49459;BME280;35354;51.296;16.924;2022-08-19T00:28:52;98859.81;;;24.48;78.06
49459;BME280;35354;51.296;16.924;2022-08-19T00:31:18;98868.09;;;24.53;78.15
49459;BME280;35354;51.296;16.924;2022-08-19T00:33:43;98864.44;;;24.54;77.63
49459;BME280;35354;51.296;16.924;2022-08-19T00:36:09;98853.94;;;24.52;77.46
49459;BME280;35354;51.296;16.924;2022-08-19T00:38:36;98851.13;;;24.54;77.21
49459;BME280;35354;51.296;16.924;2022-08-19T00:41:03;98845.78;;;24.54;77.79
49459;BME280;35354;51.296;16.924;2022-08-19T00:43:30;98833.84;;;24.50;76.84
49459;BME280;35354;51.296;16.924;2022-08-19T00:45:55;98832.75;;;24.44;77.24
49459;BME280;35354;51.296;16.924;2022-08-19T00:48:20;98842.84;;;24.49;77.18
49459;BME280;35354;51.296;16.924;2022-08-19T00:50:48;98841.72;;;24.43;77.31
49459;BME280;35354;51.296;16.924;2022-08-19T00:53:15;98830.78;;;24.38;77.58
49459;BME280;35354;51.296;16.924;2022-08-19T00:55:45;98827.09;;;24.39;77.81
49459;BME280;35354;51.296;16.924;2022-08-19T00:58:14;98824.81;;;24.36;77.91
49459;BME280;35354;51.296;16.924;2022-08-19T01:00:40;98827.53;;;24.28;78.10
49459;BME280;35354;51.296;16.924;2022-08-19T01:03:09;98831.84;;;24.29;78.19
49459;BME280;35354;51.296;16.924;2022-08-19T01:05:35;98820.91;;;24.24;77.90
49459;BME280;35354;51.296;16.924;2022-08-19T01:08:03;98828.91;;;24.24;77.83
49459;BME280;35354;51.296;16.924;2022-08-19T01:10:32;98847.53;;;24.24;77.74
49459;BME280;35354;51.296;16.924;2022-08-19T01:12:59;98826.88;;;24.26;77.72
49459;BME280;35354;51.296;16.924;2022-08-19T01:15:30;98828.94;;;24.38;77.54
49459;BME280;35354;51.296;16.924;2022-08-19T01:17:56;98833.09;;;24.41;77.50
49459;BME280;35354;51.296;16.924;2022-08-19T01:20:23;98818.47;;;24.37;77.32
49459;BME280;35354;51.296;16.924;2022-08-19T01:22:55;98801.56;;;24.30;77.90
49459;BME280;35354;51.296;16.924;2022-08-19T01:25:24;98798.25;;;24.28;77.67
49459;BME280;35354;51.296;16.924;2022-08-19T01:27:52;98774.47;;;24.26;77.91
49459;BME280;35354;51.296;16.924;2022-08-19T01:30:25;98760.25;;;24.19;78.00
49459;BME280;35354;51.296;16.924;2022-08-19T01:32:52;98791.38;;;24.33;77.79
49459;BME280;35354;51.296;16.924;2022-08-19T01:35:19;98797.16;;;24.37;77.59
49459;BME280;35354;51.296;16.924;2022-08-19T01:37:54;98776.59;;;24.31;78.01
49459;BME280;35354;51.296;16.924;2022-08-19T01:40:21;98794.03;;;24.33;77.91
49459;BME280;35354;51.296;16.924;2022-08-19T01:42:48;98790.56;;;24.33;78.22
49459;BME280;35354;51.296;16.924;2022-08-19T01:45:14;98790.75;;;24.31;78.26
49459;BME280;35354;51.296;16.924;2022-08-19T01:47:40;98785.59;;;24.30;78.27
49459;BME280;35354;51.296;16.924;2022-08-19T01:50:09;98778.34;;;24.24;78.79
49459;BME280;35354;51.296;16.924;2022-08-19T01:52:39;98785.94;;;24.27;78.59
49459;BME280;35354;51.296;16.924;2022-08-19T01:55:06;98778.34;;;24.24;78.89
49459;BME280;35354;51.296;16.924;2022-08-19T01:57:32;98757.94;;;24.16;79.35
49459;BME280;35354;51.296;16.924;2022-08-19T01:59:57;98755.53;;;24.06;79.09
49459;BME280;35354;51.296;16.924;2022-08-19T02:02:24;98759.38;;;24.04;79.45
49459;BME280;35354;51.296;16.924;2022-08-19T02:04:50;98763.88;;;24.03;79.55
49459;BME280;35354;51.296;16.924;2022-08-19T02:07:15;98760.94;;;23.98;80.13
49459;BME280;35354;51.296;16.924;2022-08-19T02:09:43;98766.13;;;23.92;79.98
49459;BME280;35354;51.296;16.924;2022-08-19T02:12:08;98766.47;;;23.88;80.37
49459;BME280;35354;51.296;16.924;2022-08-19T02:14:36;98778.66;;;23.83;80.47
49459;BME280;35354;51.296;16.924;2022-08-19T02:17:02;98778.66;;;23.83;80.62
49459;BME280;35354;51.296;16.924;2022-08-19T02:19:27;98777.34;;;23.79;80.79
49459;BME280;35354;51.296;16.924;2022-08-19T02:21:53;98767.25;;;23.74;81.23
49459;BME280;35354;51.296;16.924;2022-08-19T02:24:18;98767.59;;;23.71;81.48
49459;BME280;35354;51.296;16.924;2022-08-19T02:26:43;98773.94;;;23.70;81.75
49459;BME280;35354;51.296;16.924;2022-08-19T02:29:09;98757.00;;;23.63;81.92
49459;BME280;35354;51.296;16.924;2022-08-19T02:31:34;98752.41;;;23.57;82.49
49459;BME280;35354;51.296;16.924;2022-08-19T02:34:00;98752.56;;;23.55;82.22
49459;BME280;35354;51.296;16.924;2022-08-19T02:36:25;98758.06;;;23.54;82.77
49459;BME280;35354;51.296;16.924;2022-08-19T02:38:51;98750.97;;;23.46;82.89
49459;BME280;35354;51.296;16.924;2022-08-19T02:41:22;98758.00;;;23.39;83.71
49459;BME280;35354;51.296;16.924;2022-08-19T02:43:47;98767.78;;;23.38;83.76
49459;BME280;35354;51.296;16.924;2022-08-19T02:46:21;98762.00;;;23.35;84.21
49459;BME280;35354;51.296;16.924;2022-08-19T02:48:49;98744.28;;;23.27;84.22
49459;BME280;35354;51.296;16.924;2022-08-19T02:51:16;98730.50;;;23.24;84.83
49459;BME280;35354;51.296;16.924;2022-08-19T02:53:42;98746.63;;;23.22;85.00
49459;BME280;35354;51.296;16.924;2022-08-19T02:56:08;98747.66;;;23.13;85.39
49459;BME280;35354;51.296;16.924;2022-08-19T02:58:33;98758.94;;;23.15;85.50
49459;BME280;35354;51.296;16.924;2022-08-19T03:00:59;98748.53;;;23.05;85.87
49459;BME280;35354;51.296;16.924;2022-08-19T03:03:25;98761.31;;;23.10;86.10
49459;BME280;35354;51.296;16.924;2022-08-19T03:05:50;98750.34;;;23.05;86.02
49459;BME280;35354;51.296;16.924;2022-08-19T03:08:15;98754.50;;;23.07;86.58
49459;BME280;35354;51.296;16.924;2022-08-19T03:10:43;98762.16;;;23.02;86.80
49459;BME280;35354;51.296;16.924;2022-08-19T03:13:10;98762.00;;;22.96;87.16
49459;BME280;35354;51.296;16.924;2022-08-19T03:15:40;98758.03;;;22.91;86.79
49459;BME280;35354;51.296;16.924;2022-08-19T03:18:06;98760.03;;;22.89;87.09
49459;BME280;35354;51.296;16.924;2022-08-19T03:20:31;98773.31;;;22.89;87.64
49459;BME280;35354;51.296;16.924;2022-08-19T03:22:56;98774.16;;;22.82;87.74
49459;BME280;35354;51.296;16.924;2022-08-19T03:25:22;98786.41;;;22.83;87.94
49459;BME280;35354;51.296;16.924;2022-08-19T03:27:47;98775.97;;;22.81;88.38
49459;BME280;35354;51.296;16.924;2022-08-19T03:30:14;98780.97;;;22.76;88.77
49459;BME280;35354;51.296;16.924;2022-08-19T03:32:39;98773.19;;;22.66;89.00
49459;BME280;35354;51.296;16.924;2022-08-19T03:35:05;98781.63;;;22.70;89.00
49459;BME280;35354;51.296;16.924;2022-08-19T03:37:31;98772.38;;;22.66;89.45
49459;BME280;35354;51.296;16.924;2022-08-19T03:39:56;98777.34;;;22.61;89.73
49459;BME280;35354;51.296;16.924;2022-08-19T03:42:22;98782.69;;;22.53;90.09
49459;BME280;35354;51.296;16.924;2022-08-19T03:44:47;98792.47;;;22.52;90.44
49459;BME280;35354;51.296;16.924;2022-08-19T03:47:12;98797.13;;;22.50;90.25
49459;BME280;35354;51.296;16.924;2022-08-19T03:49:42;98800.94;;;22.56;90.48
49459;BME280;35354;51.296;16.924;2022-08-19T03:52:08;98801.94;;;22.55;90.36
49459;BME280;35354;51.296;16.924;2022-08-19T03:54:36;98791.31;;;22.55;90.52
49459;BME280;35354;51.296;16.924;2022-08-19T03:57:03;98792.81;;;22.49;90.65
49459;BME280;35354;51.296;16.924;2022-08-19T03:59:31;98797.78;;;22.52;90.55
49459;BME280;35354;51.296;16.924;2022-08-19T04:02:00;98793.78;;;22.56;90.40
49459;BME280;35354;51.296;16.924;2022-08-19T04:04:25;98795.63;;;22.56;90.44
49459;BME280;35354;51.296;16.924;2022-08-19T04:06:52;98786.34;;;22.52;90.86
49459;BME280;35354;51.296;16.924;2022-08-19T04:09:18;98806.88;;;22.58;90.80
49459;BME280;35354;51.296;16.924;2022-08-19T04:11:51;98797.59;;;22.54;90.74
49459;BME280;35354;51.296;16.924;2022-08-19T04:14:23;98814.84;;;22.66;90.39
49459;BME280;35354;51.296;16.924;2022-08-19T04:16:49;98810.34;;;22.66;90.66
49459;BME280;35354;51.296;16.924;2022-08-19T04:19:16;98816.66;;;22.74;90.49
49459;BME280;35354;51.296;16.924;2022-08-19T04:21:44;98811.66;;;22.79;89.90
49459;BME280;35354;51.296;16.924;2022-08-19T04:24:10;98803.03;;;22.77;90.01
49459;BME280;35354;51.296;16.924;2022-08-19T04:26:36;98815.94;;;22.88;89.77
49459;BME280;35354;51.296;16.924;2022-08-19T04:29:10;98823.75;;;22.98;89.22
49459;BME280;35354;51.296;16.924;2022-08-19T04:31:36;98828.38;;;23.04;89.25
49459;BME280;35354;51.296;16.924;2022-08-19T04:34:05;98816.56;;;23.14;88.95
49459;BME280;35354;51.296;16.924;2022-08-19T04:36:34;98819.34;;;23.21;88.81
49459;BME280;35354;51.296;16.924;2022-08-19T04:39:05;98809.34;;;23.31;87.87
49459;BME280;35354;51.296;16.924;2022-08-19T04:41:33;98801.16;;;23.41;87.66
49459;BME280;35354;51.296;16.924;2022-08-19T04:44:18;98811.88;;;23.56;87.18
49459;BME280;35354;51.296;16.924;2022-08-19T04:46:45;98810.16;;;23.63;86.81
49459;BME280;35354;51.296;16.924;2022-08-19T04:49:11;98792.88;;;23.67;86.50
49459;BME280;35354;51.296;16.924;2022-08-19T04:51:36;98810.09;;;23.79;86.67
49459;BME280;35354;51.296;16.924;2022-08-19T04:54:02;98805.84;;;23.93;85.39
49459;BME280;35354;51.296;16.924;2022-08-19T04:56:28;98810.25;;;24.24;84.50
49459;BME280;35354;51.296;16.924;2022-08-19T04:58:55;98802.84;;;24.34;83.20
49459;BME280;35354;51.296;16.924;2022-08-19T05:01:26;98816.56;;;24.23;83.44
49459;BME280;35354;51.296;16.924;2022-08-19T05:03:53;98793.28;;;24.02;84.10
49459;BME280;35354;51.296;16.924;2022-08-19T05:06:20;98806.59;;;24.25;84.44
49459;BME280;35354;51.296;16.924;2022-08-19T05:08:47;98795.59;;;24.28;83.96
49459;BME280;35354;51.296;16.924;2022-08-19T05:11:23;98792.75;;;24.29;83.73
49459;BME280;35354;51.296;16.924;2022-08-19T05:13:49;98798.41;;;24.49;83.50
49459;BME280;35354;51.296;16.924;2022-08-19T05:16:17;98790.91;;;24.68;82.41
49459;BME280;35354;51.296;16.924;2022-08-19T05:18:43;98780.91;;;24.84;81.52
49459;BME280;35354;51.296;16.924;2022-08-19T05:21:28;98790.53;;;25.00;80.96
49459;BME280;35354;51.296;16.924;2022-08-19T05:24:13;98791.72;;;24.98;80.77
49459;BME280;35354;51.296;16.924;2022-08-19T05:26:41;98804.16;;;25.20;80.68
49459;BME280;35354;51.296;16.924;2022-08-19T05:29:08;98794.88;;;25.16;80.42
49459;BME280;35354;51.296;16.924;2022-08-19T05:31:34;98789.97;;;25.20;80.21
49459;BME280;35354;51.296;16.924;2022-08-19T05:34:00;98794.47;;;25.34;79.57
49459;BME280;35354;51.296;16.924;2022-08-19T05:36:28;98794.94;;;25.23;79.78
49459;BME280;35354;51.296;16.924;2022-08-19T05:38:54;98805.16;;;25.19;80.48
49459;BME280;35354;51.296;16.924;2022-08-19T05:41:21;98803.31;;;25.20;80.29
49459;BME280;35354;51.296;16.924;2022-08-19T05:43:48;98806.06;;;25.26;80.34
49459;BME280;35354;51.296;16.924;2022-08-19T05:46:19;98816.97;;;25.46;79.44
49459;BME280;35354;51.296;16.924;2022-08-19T05:48:45;98807.72;;;25.63;78.91
49459;BME280;35354;51.296;16.924;2022-08-19T05:51:11;98812.63;;;25.96;77.74
49459;BME280;35354;51.296;16.924;2022-08-19T05:53:37;98809.56;;;25.99;77.41
49459;BME280;35354;51.296;16.924;2022-08-19T05:56:14;98811.09;;;26.36;76.48
49459;BME280;35354;51.296;16.924;2022-08-19T05:58:41;98811.25;;;26.28;76.21
49459;BME280;35354;51.296;16.924;2022-08-19T06:01:17;98813.19;;;26.62;75.38
49459;BME280;35354;51.296;16.924;2022-08-19T06:03:44;98818.13;;;26.66;75.11
49459;BME280;35354;51.296;16.924;2022-08-19T06:06:12;98813.53;;;26.53;75.29
49459;BME280;35354;51.296;16.924;2022-08-19T06:08:38;98828.97;;;26.57;74.98
49459;BME280;35354;51.296;16.924;2022-08-19T06:11:18;98837.28;;;27.04;74.01
49459;BME280;35354;51.296;16.924;2022-08-19T06:13:44;98840.41;;;27.49;72.36
49459;BME280;35354;51.296;16.924;2022-08-19T06:16:13;98846.72;;;27.89;71.46
49459;BME280;35354;51.296;16.924;2022-08-19T06:18:39;98851.88;;;27.97;70.61
49459;BME280;35354;51.296;16.924;2022-08-19T06:21:05;98861.06;;;28.36;69.44
49459;BME280;35354;51.296;16.924;2022-08-19T06:23:30;98856.72;;;28.75;68.43
49459;BME280;35354;51.296;16.924;2022-08-19T06:25:56;98862.81;;;29.22;67.11
49459;BME280;35354;51.296;16.924;2022-08-19T06:28:21;98866.91;;;29.31;66.13
49459;BME280;35354;51.296;16.924;2022-08-19T06:30:48;98874.50;;;29.41;65.88
49459;BME280;35354;51.296;16.924;2022-08-19T06:33:14;98892.84;;;29.57;65.17
49459;BME280;35354;51.296;16.924;2022-08-19T06:35:41;98894.66;;;29.70;65.04
49459;BME280;35354;51.296;16.924;2022-08-19T06:38:07;98901.72;;;30.02;64.14
49459;BME280;35354;51.296;16.924;2022-08-19T06:40:32;98886.69;;;30.33;62.65
49459;BME280;35354;51.296;16.924;2022-08-19T06:42:57;98888.34;;;30.59;62.02
49459;BME280;35354;51.296;16.924;2022-08-19T06:45:25;98886.50;;;30.85;61.69
49459;BME280;35354;51.296;16.924;2022-08-19T06:47:52;98891.44;;;31.31;60.67
49459;BME280;35354;51.296;16.924;2022-08-19T06:50:21;98896.59;;;31.81;60.06
49459;BME280;35354;51.296;16.924;2022-08-19T06:52:47;98897.84;;;31.67;58.13
49459;BME280;35354;51.296;16.924;2022-08-19T06:55:12;98886.97;;;32.22;57.33
49459;BME280;35354;51.296;16.924;2022-08-19T06:57:38;98909.25;;;32.71;56.78
49459;BME280;35354;51.296;16.924;2022-08-19T07:00:05;98908.84;;;35.14;51.87
49459;BME280;35354;51.296;16.924;2022-08-19T07:02:33;98914.13;;;37.00;46.71
49459;BME280;35354;51.296;16.924;2022-08-19T07:05:02;98911.88;;;39.14;42.78
49459;BME280;35354;51.296;16.924;2022-08-19T07:07:28;98915.34;;;40.45;39.95
49459;BME280;35354;51.296;16.924;2022-08-19T07:09:53;98931.44;;;42.24;37.70
49459;BME280;35354;51.296;16.924;2022-08-19T07:12:19;98930.63;;;43.63;35.64
49459;BME280;35354;51.296;16.924;2022-08-19T07:14:44;98935.69;;;45.10;34.37
49459;BME280;35354;51.296;16.924;2022-08-19T07:17:13;98939.38;;;46.37;32.39
49459;BME280;35354;51.296;16.924;2022-08-19T07:19:40;98932.34;;;46.83;31.23
49459;BME280;35354;51.296;16.924;2022-08-19T07:22:07;98931.19;;;47.60;30.07
49459;BME280;35354;51.296;16.924;2022-08-19T07:24:34;98938.91;;;48.59;28.99
49459;BME280;35354;51.296;16.924;2022-08-19T07:27:02;98949.84;;;49.75;27.94
49459;BME280;35354;51.296;16.924;2022-08-19T07:29:31;98955.53;;;50.47;27.82
49459;BME280;35354;51.296;16.924;2022-08-19T07:31:59;98947.69;;;51.08;26.27
49459;BME280;35354;51.296;16.924;2022-08-19T07:34:28;98949.66;;;51.39;25.93
49459;BME280;35354;51.296;16.924;2022-08-19T07:36:54;98954.59;;;51.81;25.52
49459;BME280;35354;51.296;16.924;2022-08-19T07:39:24;98953.81;;;52.00;25.52
49459;BME280;35354;51.296;16.924;2022-08-19T07:41:49;98933.75;;;52.26;25.15
49459;BME280;35354;51.296;16.924;2022-08-19T07:44:17;98952.44;;;52.68;24.82
49459;BME280;35354;51.296;16.924;2022-08-19T07:46:47;98946.38;;;52.85;24.14
49459;BME280;35354;51.296;16.924;2022-08-19T07:49:14;98961.88;;;52.86;24.35
49459;BME280;35354;51.296;16.924;2022-08-19T07:51:45;98958.50;;;52.97;23.74
49459;BME280;35354;51.296;16.924;2022-08-19T07:54:11;98970.13;;;53.25;23.80
49459;BME280;35354;51.296;16.924;2022-08-19T07:56:37;98972.16;;;53.05;23.95
49459;BME280;35354;51.296;16.924;2022-08-19T07:59:02;98967.50;;;53.13;23.43
49459;BME280;35354;51.296;16.924;2022-08-19T08:01:28;98964.31;;;53.11;23.58
49459;BME280;35354;51.296;16.924;2022-08-19T08:03:55;98980.22;;;53.60;23.68
49459;BME280;35354;51.296;16.924;2022-08-19T08:06:39;98983.47;;;53.92;23.45
49459;BME280;35354;51.296;16.924;2022-08-19T08:09:27;98975.38;;;53.83;23.02
49459;BME280;35354;51.296;16.924;2022-08-19T08:11:59;98977.13;;;53.65;22.55
49459;BME280;35354;51.296;16.924;2022-08-19T08:14:32;98977.66;;;53.25;22.62
49459;BME280;35354;51.296;16.924;2022-08-19T08:16:58;98974.63;;;51.08;23.93
49459;BME280;35354;51.296;16.924;2022-08-19T08:19:25;98959.97;;;47.12;26.86
49459;BME280;35354;51.296;16.924;2022-08-19T08:21:54;98961.84;;;44.03;29.52
49459;BME280;35354;51.296;16.924;2022-08-19T08:24:19;98946.34;;;41.94;32.33
49459;BME280;35354;51.296;16.924;2022-08-19T08:26:45;98951.44;;;40.42;34.05
49459;BME280;35354;51.296;16.924;2022-08-19T08:29:11;98954.69;;;39.04;36.24
49459;BME280;35354;51.296;16.924;2022-08-19T08:31:39;98951.28;;;37.94;37.91
49459;BME280;35354;51.296;16.924;2022-08-19T08:34:05;98952.31;;;37.36;39.50
49459;BME280;35354;51.296;16.924;2022-08-19T08:36:30;98953.41;;;36.92;40.07
49459;BME280;35354;51.296;16.924;2022-08-19T08:38:58;98950.06;;;36.53;41.28
49459;BME280;35354;51.296;16.924;2022-08-19T08:41:43;98940.44;;;36.13;41.97
49459;BME280;35354;51.296;16.924;2022-08-19T08:44:32;98934.34;;;35.79;42.83
49459;BME280;35354;51.296;16.924;2022-08-19T08:47:09;98955.78;;;35.59;43.03
49459;BME280;35354;51.296;16.924;2022-08-19T08:49:54;98950.47;;;35.30;44.21
49459;BME280;35354;51.296;16.924;2022-08-19T08:52:28;98959.72;;;35.12;44.52
49459;BME280;35354;51.296;16.924;2022-08-19T08:54:57;98943.88;;;34.87;44.92
49459;BME280;35354;51.296;16.924;2022-08-19T08:57:36;98950.75;;;34.61;44.70
49459;BME280;35354;51.296;16.924;2022-08-19T09:00:06;98947.25;;;34.32;46.49
49459;BME280;35354;51.296;16.924;2022-08-19T09:02:33;98960.00;;;34.20;46.73
49459;BME280;35354;51.296;16.924;2022-08-19T09:05:00;98955.44;;;34.09;46.43
49459;BME280;35354;51.296;16.924;2022-08-19T09:10:22;98949.16;;;34.03;47.04
49459;BME280;35354;51.296;16.924;2022-08-19T09:15:31;98936.28;;;33.70;48.04
49459;BME280;35354;51.296;16.924;2022-08-19T09:18:02;98931.06;;;33.40;49.56
49459;BME280;35354;51.296;16.924;2022-08-19T09:20:28;98927.66;;;33.33;49.47
49459;BME280;35354;51.296;16.924;2022-08-19T09:22:53;98937.28;;;33.40;49.24
49459;BME280;35354;51.296;16.924;2022-08-19T09:25:21;98946.19;;;33.52;49.60
49459;BME280;35354;51.296;16.924;2022-08-19T09:27:49;98936.00;;;33.55;49.11
49459;BME280;35354;51.296;16.924;2022-08-19T09:30:25;98946.09;;;33.59;47.85
49459;BME280;35354;51.296;16.924;2022-08-19T09:32:52;98939.97;;;33.64;48.47
49459;BME280;35354;51.296;16.924;2022-08-19T09:35:20;98931.97;;;33.69;48.93
49459;BME280;35354;51.296;16.924;2022-08-19T09:37:47;98936.19;;;33.76;49.09
49459;BME280;35354;51.296;16.924;2022-08-19T09:40:14;98924.31;;;33.77;48.84
49459;BME280;35354;51.296;16.924;2022-08-19T09:42:40;98933.22;;;33.78;48.86
49459;BME280;35354;51.296;16.924;2022-08-19T09:45:09;98937.25;;;33.75;49.48
49459;BME280;35354;51.296;16.924;2022-08-19T09:47:34;98944.94;;;33.84;48.22
49459;BME280;35354;51.296;16.924;2022-08-19T09:50:04;98940.13;;;33.86;48.06
49459;BME280;35354;51.296;16.924;2022-08-19T09:52:31;98942.59;;;33.87;48.28
49459;BME280;35354;51.296;16.924;2022-08-19T09:54:56;98934.25;;;33.89;48.03
49459;BME280;35354;51.296;16.924;2022-08-19T09:57:21;98929.31;;;33.86;48.05
49459;BME280;35354;51.296;16.924;2022-08-19T09:59:47;98938.13;;;33.93;48.74
49459;BME280;35354;51.296;16.924;2022-08-19T10:02:13;98942.19;;;33.95;48.71
49459;BME280;35354;51.296;16.924;2022-08-19T10:04:38;98943.66;;;33.86;47.82
49459;BME280;35354;51.296;16.924;2022-08-19T10:07:22;98949.53;;;33.83;48.19
49459;BME280;35354;51.296;16.924;2022-08-19T10:09:48;98950.13;;;33.85;48.14
49459;BME280;35354;51.296;16.924;2022-08-19T10:12:13;98945.00;;;33.72;48.54
49459;BME280;35354;51.296;16.924;2022-08-19T10:14:40;98953.66;;;33.74;48.91
49459;BME280;35354;51.296;16.924;2022-08-19T10:17:06;98947.38;;;33.45;48.67
49459;BME280;35354;51.296;16.924;2022-08-19T10:19:31;98945.38;;;33.28;49.37
49459;BME280;35354;51.296;16.924;2022-08-19T10:22:03;98953.47;;;33.40;50.08
49459;BME280;35354;51.296;16.924;2022-08-19T10:24:29;98953.72;;;33.50;49.63
49459;BME280;35354;51.296;16.924;2022-08-19T10:26:56;98949.72;;;33.53;49.41
49459;BME280;35354;51.296;16.924;2022-08-19T10:29:23;98968.59;;;33.65;49.90
49459;BME280;35354;51.296;16.924;2022-08-19T10:31:48;98956.53;;;33.67;49.25
49459;BME280;35354;51.296;16.924;2022-08-19T10:34:14;98961.66;;;33.69;50.15
49459;BME280;35354;51.296;16.924;2022-08-19T10:36:39;98958.16;;;33.68;50.10
49459;BME280;35354;51.296;16.924;2022-08-19T10:39:09;98953.81;;;33.44;47.54
49459;BME280;35354;51.296;16.924;2022-08-19T10:41:37;98944.81;;;33.26;47.46
49459;BME280;35354;51.296;16.924;2022-08-19T10:44:06;98935.53;;;33.22;48.43
49459;BME280;35354;51.296;16.924;2022-08-19T10:46:33;98941.50;;;33.36;48.84
49459;BME280;35354;51.296;16.924;2022-08-19T10:49:03;98928.94;;;33.42;48.60
49459;BME280;35354;51.296;16.924;2022-08-19T10:51:31;98947.97;;;33.59;49.23
49459;BME280;35354;51.296;16.924;2022-08-19T10:54:16;98954.25;;;33.76;48.36
49459;BME280;35354;51.296;16.924;2022-08-19T10:56:42;98941.66;;;33.82;47.89
49459;BME280;35354;51.296;16.924;2022-08-19T10:59:19;98952.56;;;33.98;48.04
49459;BME280;35354;51.296;16.924;2022-08-19T11:01:46;98938.00;;;33.99;48.47
49459;BME280;35354;51.296;16.924;2022-08-19T11:04:12;98946.41;;;34.15;47.44
49459;BME280;35354;51.296;16.924;2022-08-19T11:06:39;98921.78;;;33.99;47.28
49459;BME280;35354;51.296;16.924;2022-08-19T11:09:07;98936.69;;;34.02;47.15
49459;BME280;35354;51.296;16.924;2022-08-19T11:11:33;98938.44;;;33.68;48.30
49459;BME280;35354;51.296;16.924;2022-08-19T11:14:07;98935.28;;;33.59;47.34
49459;BME280;35354;51.296;16.924;2022-08-19T11:16:33;98945.94;;;33.54;47.13
49459;BME280;35354;51.296;16.924;2022-08-19T11:18:59;98945.63;;;33.50;47.65
49459;BME280;35354;51.296;16.924;2022-08-19T11:21:30;98942.09;;;33.50;47.27
49459;BME280;35354;51.296;16.924;2022-08-19T11:23:58;98930.16;;;33.46;47.59
49459;BME280;35354;51.296;16.924;2022-08-19T11:26:24;98952.41;;;33.53;48.23
49459;BME280;35354;51.296;16.924;2022-08-19T11:28:51;98944.56;;;33.51;47.89
49459;BME280;35354;51.296;16.924;2022-08-19T11:31:21;98951.13;;;33.56;47.92
49459;BME280;35354;51.296;16.924;2022-08-19T11:33:47;98957.69;;;33.71;47.92
49459;BME280;35354;51.296;16.924;2022-08-19T11:36:16;98948.97;;;33.81;47.64
49459;BME280;35354;51.296;16.924;2022-08-19T11:38:41;98947.75;;;33.89;47.25
49459;BME280;35354;51.296;16.924;2022-08-19T11:41:07;98956.91;;;33.99;46.59
49459;BME280;35354;51.296;16.924;2022-08-19T11:43:34;98953.72;;;34.03;46.96
49459;BME280;35354;51.296;16.924;2022-08-19T11:46:04;98961.50;;;33.99;47.53
49459;BME280;35354;51.296;16.924;2022-08-19T11:48:31;98945.16;;;33.94;46.87
49459;BME280;35354;51.296;16.924;2022-08-19T11:50:57;98958.31;;;33.90;46.90
49459;BME280;35354;51.296;16.924;2022-08-19T11:53:22;98955.06;;;33.88;46.97
49459;BME280;35354;51.296;16.924;2022-08-19T11:55:48;98951.19;;;33.84;46.66
49459;BME280;35354;51.296;16.924;2022-08-19T11:58:15;98943.91;;;33.85;47.18
49459;BME280;35354;51.296;16.924;2022-08-19T12:00:42;98958.41;;;33.95;47.43
49459;BME280;35354;51.296;16.924;2022-08-19T12:03:10;98931.44;;;33.84;47.91
49459;BME280;35354;51.296;16.924;2022-08-19T12:05:37;98934.84;;;33.79;47.09
49459;BME280;35354;51.296;16.924;2022-08-19T12:08:03;98953.81;;;33.67;47.01
49459;BME280;35354;51.296;16.924;2022-08-19T12:10:28;98941.47;;;33.71;48.55
49459;BME280;35354;51.296;16.924;2022-08-19T12:12:55;98944.13;;;33.83;48.55
49459;BME280;35354;51.296;16.924;2022-08-19T12:15:20;98935.19;;;33.83;49.29
49459;BME280;35354;51.296;16.924;2022-08-19T12:17:46;98937.78;;;33.89;49.49
49459;BME280;35354;51.296;16.924;2022-08-19T12:20:13;98940.22;;;33.91;49.27
49459;BME280;35354;51.296;16.924;2022-08-19T12:22:40;98940.00;;;33.92;48.99
49459;BME280;35354;51.296;16.924;2022-08-19T12:25:07;98945.28;;;33.87;49.07
49459;BME280;35354;51.296;16.924;2022-08-19T12:27:33;98947.53;;;33.78;49.19
49459;BME280;35354;51.296;16.924;2022-08-19T12:29:58;98943.13;;;33.72;49.19
49459;BME280;35354;51.296;16.924;2022-08-19T12:32:26;98940.44;;;33.61;49.07
49459;BME280;35354;51.296;16.924;2022-08-19T12:34:51;98934.56;;;33.40;48.91
49459;BME280;35354;51.296;16.924;2022-08-19T12:37:17;98948.53;;;33.37;49.49
49459;BME280;35354;51.296;16.924;2022-08-19T12:39:43;98938.00;;;33.24;48.96
49459;BME280;35354;51.296;16.924;2022-08-19T12:42:10;98947.41;;;33.21;49.47
49459;BME280;35354;51.296;16.924;2022-08-19T12:44:38;98948.91;;;33.17;49.46
49459;BME280;35354;51.296;16.924;2022-08-19T12:47:04;98946.78;;;33.08;49.47
49459;BME280;35354;51.296;16.924;2022-08-19T12:49:30;98951.84;;;33.04;49.53
49459;BME280;35354;51.296;16.924;2022-08-19T12:51:59;98940.41;;;32.90;49.76
49459;BME280;35354;51.296;16.924;2022-08-19T12:54:25;98956.25;;;32.87;49.65
49459;BME280;35354;51.296;16.924;2022-08-19T12:56:50;98950.97;;;32.80;50.73
49459;BME280;35354;51.296;16.924;2022-08-19T12:59:16;98952.94;;;32.73;50.65